Time;durP1;ratioP1;P1;durP2;ratioP2;P2;SDS_P1;SDS_P2;PMS_P1;PMS_P2;Temp;Humidity;BMP_temperature;BMP_pressure;BME280_temperature;BME280_humidity;BME280_pressure;Samples;Min_cycle;Max_cycle;Signal;HPM_P1;HPM_P2
2021/12/31 00:00:06;;;;;;;;;;;;;;;10.17;63.10;100362.44;4280716;33;20041;-82
2021/12/31 00:02:34;;;;;;;;;;;;;;;10.27;63.04;100367.91;4279755;33;20766;-83
2021/12/31 00:05:01;;;;;;;;;;;;;;;10.37;62.72;100364.69;4280312;33;20111;-82
2021/12/31 00:07:28;;;;;;;;;;;;;;;10.24;62.99;100372.16;4279116;33;20796;-82
2021/12/31 00:10:00;;;;;;;;;;;;;;;10.60;61.90;100380.81;4281352;33;20012;-82
2021/12/31 00:12:27;;;;;;;;;;;;;;;10.20;63.13;100380.63;4267803;33;20279;-82
2021/12/31 00:14:54;;;;;;;;;;;;;;;9.93;64.18;100390.25;4281935;33;20405;-82
2021/12/31 00:17:21;;;;;;;;;;;;;;;10.34;62.88;100380.16;4252018;33;19997;-82
2021/12/31 00:19:50;;;;;;;;;;;;;;;10.40;62.70;100382.91;4267691;33;20036;-82
2021/12/31 00:24:53;;;;;;;;;;;;;;;10.30;63.36;100376.59;4256498;33;19981;-82
2021/12/31 00:27:20;;;;;;;;;;;;;;;10.17;63.90;100379.69;4268886;33;19981;-82
2021/12/31 00:29:46;;;;;;;;;;;;;;;10.30;63.51;100378.31;4281507;33;20274;-83
2021/12/31 00:32:13;;;;;;;;;;;;;;;10.48;62.78;100368.44;4268081;33;19990;-82
2021/12/31 00:34:40;;;;;;;;;;;;;;;10.46;62.86;100367.53;4281354;33;19989;-82
2021/12/31 00:37:07;;;;;;;;;;;;;;;10.51;62.72;100365.94;4281439;33;20319;-82
2021/12/31 00:39:34;;;;;;;;;;;;;;;10.52;62.34;100362.50;4263264;33;20119;-82
2021/12/31 00:42:00;;;;;;;;;;;;;;;10.51;62.70;100376.28;4268185;33;20025;-82
2021/12/31 00:44:27;;;;;;;;;;;;;;;10.77;61.76;100368.28;4281107;33;19993;-82
2021/12/31 00:46:54;;;;;;;;;;;;;;;10.61;62.29;100370.50;4280825;33;20000;-82
2021/12/31 00:49:21;;;;;;;;;;;;;;;10.67;62.19;100373.22;4281266;33;20003;-82
2021/12/31 00:51:48;;;;;;;;;;;;;;;10.69;62.13;100381.94;4280696;33;19997;-82
2021/12/31 00:54:15;;;;;;;;;;;;;;;10.77;62.08;100373.47;4281154;33;20279;-82
2021/12/31 00:56:44;;;;;;;;;;;;;;;10.84;61.55;100370.16;4281406;33;20312;-82
2021/12/31 00:59:11;;;;;;;;;;;;;;;10.77;61.81;100382.09;4280754;33;20012;-82
2021/12/31 01:01:38;;;;;;;;;;;;;;;10.64;62.58;100383.50;4281307;33;20032;-82
2021/12/31 01:04:05;;;;;;;;;;;;;;;10.74;62.19;100375.97;4268600;33;20361;-82
2021/12/31 01:06:34;;;;;;;;;;;;;;;10.70;62.54;100373.31;4280430;33;20625;-82
2021/12/31 01:09:01;;;;;;;;;;;;;;;10.74;62.30;100378.56;4280702;33;19993;-83
2021/12/31 01:11:27;;;;;;;;;;;;;;;10.83;61.95;100378.78;4259935;33;20718;-82
2021/12/31 01:14:02;;;;;;;;;;;;;;;10.83;61.96;100383.97;4264265;33;19993;-82
2021/12/31 01:16:37;;;;;;;;;;;;;;;10.85;61.93;100390.94;4283053;33;20308;-83
2021/12/31 01:21:33;;;;;;;;;;;;;;;10.86;61.94;100384.03;4282866;33;19998;-82
2021/12/31 01:24:01;;;;;;;;;;;;;;;10.86;61.94;100381.44;4282440;33;20391;-82
2021/12/31 01:26:29;;;;;;;;;;;;;;;10.90;61.60;100386.72;4278987;33;19984;-82
2021/12/31 01:28:56;;;;;;;;;;;;;;;10.69;62.18;100381.94;4283323;33;19999;-82
2021/12/31 01:31:24;;;;;;;;;;;;;;;10.30;64.21;100383.50;4283223;33;20396;-82
2021/12/31 01:33:51;;;;;;;;;;;;;;;10.26;64.49;100385.13;4282651;33;20029;-83
2021/12/31 01:36:18;;;;;;;;;;;;;;;9.43;68.05;100400.03;4282894;33;19969;-82
2021/12/31 01:38:45;;;;;;;;;;;;;;;9.28;69.21;100392.69;4283271;33;20040;-82
2021/12/31 01:41:12;;;;;;;;;;;;;;;9.75;67.39;100386.31;4268761;33;20375;-82
2021/12/31 01:43:39;;;;;;;;;;;;;;;9.84;67.16;100395.19;4283186;33;19977;-82
2021/12/31 01:46:11;;;;;;;;;;;;;;;9.74;67.03;100379.41;4282490;33;19973;-82
2021/12/31 01:51:35;;;;;;;;;;;;;;;10.17;65.97;100390.91;4266652;33;19996;-82
2021/12/31 01:54:02;;;;;;;;;;;;;;;10.25;65.10;100389.41;4268664;33;19993;-82
2021/12/31 01:56:29;;;;;;;;;;;;;;;10.54;64.27;100391.91;4255228;33;19981;-82
2021/12/31 01:58:55;;;;;;;;;;;;;;;10.62;64.06;100389.50;4255446;33;20037;-82
2021/12/31 02:01:25;;;;;;;;;;;;;;;10.71;63.45;100389.72;4267953;33;19989;-83
2021/12/31 02:03:52;;;;;;;;;;;;;;;10.74;62.88;100389.78;4254764;33;20000;-83
2021/12/31 02:06:19;;;;;;;;;;;;;;;10.79;62.26;100382.16;4231977;33;19981;-83
2021/12/31 02:08:46;;;;;;;;;;;;;;;10.83;62.10;100384.84;4267677;33;20332;-83
2021/12/31 02:11:15;;;;;;;;;;;;;;;10.73;62.53;100394.94;4268101;33;19984;-83
2021/12/31 02:13:42;;;;;;;;;;;;;;;10.79;62.19;100392.50;4267827;33;20004;-83
2021/12/31 02:16:09;;;;;;;;;;;;;;;10.82;61.72;100387.41;4255228;33;19985;-83
2021/12/31 02:18:36;;;;;;;;;;;;;;;10.88;61.72;100390.09;4267772;33;20023;-82
2021/12/31 02:21:08;;;;;;;;;;;;;;;10.99;61.67;100378.31;4260627;33;20415;-83
2021/12/31 02:23:42;;;;;;;;;;;;;;;10.93;61.75;100380.75;4267855;33;20036;-82
2021/12/31 02:26:10;;;;;;;;;;;;;;;10.83;62.18;100378.78;4268146;33;19965;-82
2021/12/31 02:28:37;;;;;;;;;;;;;;;10.89;62.25;100371.16;4250227;33;20340;-82
2021/12/31 02:31:04;;;;;;;;;;;;;;;11.13;62.08;100374.28;4266496;33;20672;-82
2021/12/31 02:33:53;;;;;;;;;;;;;;;11.06;62.10;100371.53;4267734;33;19985;-82
2021/12/31 02:36:21;;;;;;;;;;;;;;;11.06;62.36;100372.41;4267065;33;20368;-82
2021/12/31 02:38:48;;;;;;;;;;;;;;;11.14;61.33;100370.88;4267239;33;19980;-82
2021/12/31 02:41:14;;;;;;;;;;;;;;;11.04;61.33;100363.75;4268256;33;20550;-83
2021/12/31 02:43:43;;;;;;;;;;;;;;;11.10;60.67;100356.13;4271206;33;19996;-83
2021/12/31 02:46:10;;;;;;;;;;;;;;;11.09;60.24;100362.13;4267428;33;19988;-82
2021/12/31 02:48:37;;;;;;;;;;;;;;;11.08;59.84;100365.56;4268618;33;20036;-83
2021/12/31 02:51:06;;;;;;;;;;;;;;;11.10;59.19;100353.53;4269120;33;19990;-83
2021/12/31 02:53:36;;;;;;;;;;;;;;;10.98;59.53;100345.47;4270347;33;19999;-82
2021/12/31 02:56:05;;;;;;;;;;;;;;;10.97;60.02;100354.06;4267052;33;20058;-82
2021/12/31 02:58:31;;;;;;;;;;;;;;;11.03;58.59;100351.63;4268201;33;19985;-82
2021/12/31 03:00:58;;;;;;;;;;;;;;;11.02;59.00;100349.88;4270134;33;19999;-82
2021/12/31 03:03:25;;;;;;;;;;;;;;;10.91;59.18;100340.97;4268589;33;19985;-82
2021/12/31 03:05:53;;;;;;;;;;;;;;;10.94;58.48;100346.22;4265706;33;20313;-82
2021/12/31 03:08:23;;;;;;;;;;;;;;;10.88;57.98;100343.50;4274016;33;20398;-83
2021/12/31 03:10:50;;;;;;;;;;;;;;;10.84;57.51;100349.44;4274327;33;19989;-84
2021/12/31 03:13:17;;;;;;;;;;;;;;;10.68;58.03;100354.25;4253512;33;20041;-84
2021/12/31 03:15:44;;;;;;;;;;;;;;;10.59;58.38;100348.91;4293696;33;19984;-84
2021/12/31 03:18:11;;;;;;;;;;;;;;;10.63;58.26;100348.13;4285875;33;19973;-83
2021/12/31 03:20:43;;;;;;;;;;;;;;;10.63;59.22;100345.53;4282465;33;20257;-82
2021/12/31 03:23:10;;;;;;;;;;;;;;;10.66;59.76;100344.75;4282699;33;20035;-82
2021/12/31 03:25:37;;;;;;;;;;;;;;;10.70;59.63;100344.81;4281299;33;20376;-82
2021/12/31 03:28:04;;;;;;;;;;;;;;;10.66;59.43;100335.25;4285653;33;20045;-83
2021/12/31 03:30:31;;;;;;;;;;;;;;;10.71;59.32;100336.22;4269478;33;19984;-83
2021/12/31 03:32:58;;;;;;;;;;;;;;;10.75;59.44;100338.87;4271018;33;20039;-83
2021/12/31 03:35:25;;;;;;;;;;;;;;;10.79;59.06;100341.59;4280758;33;20009;-83
2021/12/31 03:37:54;;;;;;;;;;;;;;;10.50;59.42;100333.13;4276072;33;19989;-83
2021/12/31 03:40:21;;;;;;;;;;;;;;;10.54;58.96;100337.53;4269527;33;20032;-82
2021/12/31 03:42:48;;;;;;;;;;;;;;;10.44;59.34;100332.97;4282498;33;20067;-82
2021/12/31 03:45:15;;;;;;;;;;;;;;;10.40;59.68;100337.22;4264811;33;19980;-82
2021/12/31 03:47:42;;;;;;;;;;;;;;;10.32;59.67;100337.84;4285937;33;19981;-82
2021/12/31 03:50:09;;;;;;;;;;;;;;;10.08;60.34;100325.13;4297168;33;19988;-82
2021/12/31 03:52:38;;;;;;;;;;;;;;;10.24;59.73;100337.59;4294771;33;20067;-82
2021/12/31 03:55:08;;;;;;;;;;;;;;;9.90;60.76;100333.28;4271118;33;19981;-82
2021/12/31 03:57:35;;;;;;;;;;;;;;;10.03;60.31;100340.53;4276335;33;20712;-83
2021/12/31 04:00:04;;;;;;;;;;;;;;;10.02;60.42;100343.97;4275520;33;19984;-83
2021/12/31 04:02:31;;;;;;;;;;;;;;;10.14;60.11;100338.22;4287868;33;19996;-83
2021/12/31 04:04:58;;;;;;;;;;;;;;;10.00;60.94;100338.75;4280919;33;19977;-83
2021/12/31 04:07:25;;;;;;;;;;;;;;;10.06;60.71;100338.03;4265470;33;20462;-83
2021/12/31 04:09:52;;;;;;;;;;;;;;;10.11;60.54;100336.41;4296951;33;20051;-82
2021/12/31 04:12:19;;;;;;;;;;;;;;;10.02;60.89;100343.97;4298079;33;19988;-81
2021/12/31 04:14:45;;;;;;;;;;;;;;;10.07;60.62;100342.34;4266134;33;19977;-82
2021/12/31 04:17:12;;;;;;;;;;;;;;;10.18;60.30;100340.94;4296751;33;19992;-82
2021/12/31 04:19:41;;;;;;;;;;;;;;;10.21;60.11;100340.12;4286512;33;19992;-81
2021/12/31 04:22:11;;;;;;;;;;;;;;;10.28;59.43;100336.03;4262259;33;20037;-82
2021/12/31 04:27:11;;;;;;;;;;;;;;;10.24;59.27;100335.91;4282004;33;19984;-81
2021/12/31 04:29:38;;;;;;;;;;;;;;;10.23;59.14;100339.31;4282683;33;20007;-81
2021/12/31 04:32:05;;;;;;;;;;;;;;;10.20;59.05;100336.66;4283245;33;19989;-81
2021/12/31 04:34:32;;;;;;;;;;;;;;;10.20;59.12;100344.41;4295639;33;20315;-81
2021/12/31 04:36:59;;;;;;;;;;;;;;;10.06;59.86;100344.91;4292978;33;19984;-82
2021/12/31 04:39:27;;;;;;;;;;;;;;;10.14;58.90;100339.09;4295252;33;20032;-82
2021/12/31 04:41:53;;;;;;;;;;;;;;;10.20;58.67;100344.41;4282204;33;19988;-83
2021/12/31 04:44:21;;;;;;;;;;;;;;;10.18;58.06;100346.13;4296154;33;20278;-82
2021/12/31 04:46:48;;;;;;;;;;;;;;;10.02;58.27;100343.97;4295709;33;20722;-82
2021/12/31 04:49:15;;;;;;;;;;;;;;;10.05;58.35;100349.22;3988574;33;10002881;-82
2021/12/31 04:51:44;;;;;;;;;;;;;;;10.12;57.42;100345.94;4295276;33;20007;-83
2021/12/31 04:54:15;;;;;;;;;;;;;;;10.03;57.68;100350.88;4284946;33;20268;-83
2021/12/31 04:56:44;;;;;;;;;;;;;;;9.87;57.77;100349.59;4285572;33;19980;-82
2021/12/31 04:59:11;;;;;;;;;;;;;;;9.91;58.20;100345.37;4271307;33;19985;-82
2021/12/31 05:01:38;;;;;;;;;;;;;;;9.91;57.76;100345.37;4268156;33;20003;-82
2021/12/31 05:04:05;;;;;;;;;;;;;;;9.84;57.62;100346.91;4281248;33;20033;-83
2021/12/31 05:06:33;;;;;;;;;;;;;;;9.77;58.19;100348.47;4285495;33;19988;-82
2021/12/31 05:09:00;;;;;;;;;;;;;;;9.74;58.17;100348.38;4276044;33;20316;-81
2021/12/31 05:11:27;;;;;;;;;;;;;;;9.71;57.60;100356.06;4295233;33;20484;-82
2021/12/31 05:13:54;;;;;;;;;;;;;;;9.62;57.96;100353.22;4283011;33;20003;-83
2021/12/31 05:16:21;;;;;;;;;;;;;;;9.62;58.19;100358.38;4280720;33;19996;-83
2021/12/31 05:18:48;;;;;;;;;;;;;;;9.68;58.35;100358.56;4295598;33;20422;-82
2021/12/31 05:21:15;;;;;;;;;;;;;;;9.72;58.98;100357.78;4280061;33;19989;-83
2021/12/31 05:23:41;;;;;;;;;;;;;;;9.74;58.20;100357.84;4280826;33;19985;-82
2021/12/31 05:26:08;;;;;;;;;;;;;;;9.63;58.57;100354.94;4281550;33;20007;-81
2021/12/31 05:28:36;;;;;;;;;;;;;;;9.83;59.22;100360.69;4288612;33;19996;-82
2021/12/31 05:31:03;;;;;;;;;;;;;;;9.83;58.22;100367.53;4295697;33;20040;-82
2021/12/31 05:33:30;;;;;;;;;;;;;;;9.76;58.74;100359.66;4282444;33;20019;-82
2021/12/31 05:35:59;;;;;;;;;;;;;;;9.76;58.50;100366.50;4295278;33;19981;-82
2021/12/31 05:38:26;;;;;;;;;;;;;;;9.72;58.33;100360.38;4295720;33;20028;-82
2021/12/31 05:40:53;;;;;;;;;;;;;;;9.73;58.15;100362.16;4296194;33;20007;-82
2021/12/31 05:43:21;;;;;;;;;;;;;;;9.78;58.18;100355.37;4295301;33;21249;-82
2021/12/31 05:45:48;;;;;;;;;;;;;;;9.50;60.69;100368.38;4294336;33;19991;-82
2021/12/31 05:48:23;;;;;;;;;;;;;;;9.25;63.44;100367.66;4295037;33;19982;-82
2021/12/31 05:50:50;;;;;;;;;;;;;;;9.51;62.33;100370.13;4275860;33;20036;-82
2021/12/31 05:53:17;;;;;;;;;;;;;;;9.76;61.57;100369.09;4294805;33;20320;-81
2021/12/31 05:55:44;;;;;;;;;;;;;;;9.76;61.66;100372.59;4294969;33;19984;-82
2021/12/31 05:58:10;;;;;;;;;;;;;;;9.74;60.64;100376.81;4294742;33;20304;-82
2021/12/31 06:00:37;;;;;;;;;;;;;;;9.81;59.50;100379.56;4297194;33;19980;-83
2021/12/31 06:03:04;;;;;;;;;;;;;;;9.84;59.03;100374.50;4295821;33;19999;-83
2021/12/31 06:05:31;;;;;;;;;;;;;;;9.75;58.96;100381.16;4297086;33;20341;-82
2021/12/31 06:07:59;;;;;;;;;;;;;;;9.69;58.76;100380.97;4296020;33;20330;-82
2021/12/31 06:10:26;;;;;;;;;;;;;;;9.62;58.53;100389.41;4297025;33;20004;-81
2021/12/31 06:12:56;;;;;;;;;;;;;;;9.75;57.66;100386.31;4296870;33;19981;-81
2021/12/31 06:15:23;;;;;;;;;;;;;;;9.65;58.11;100384.31;4295944;33;20003;-82
2021/12/31 06:17:50;;;;;;;;;;;;;;;9.55;58.16;100382.31;4294600;33;19973;-81
2021/12/31 06:20:17;;;;;;;;;;;;;;;9.46;57.82;100392.38;4284337;33;19980;-81
2021/12/31 06:22:43;;;;;;;;;;;;;;;9.46;57.75;100392.38;4272057;33;19984;-81
2021/12/31 06:25:12;;;;;;;;;;;;;;;9.43;57.96;100397.44;4296577;33;19987;-82
2021/12/31 06:27:38;;;;;;;;;;;;;;;9.37;58.05;100402.44;4297613;33;20028;-82
2021/12/31 06:30:05;;;;;;;;;;;;;;;9.36;57.90;100400.69;4270021;33;19989;-82
2021/12/31 06:32:32;;;;;;;;;;;;;;;9.19;58.25;100395.88;4283534;33;19996;-82
2021/12/31 06:34:59;;;;;;;;;;;;;;;9.42;57.50;100395.69;4296327;33;20035;-82
2021/12/31 06:37:26;;;;;;;;;;;;;;;9.28;57.73;100398.75;4296997;33;19981;-82
2021/12/31 06:39:53;;;;;;;;;;;;;;;9.29;57.89;100402.22;4296367;33;19996;-81
2021/12/31 06:42:20;;;;;;;;;;;;;;;9.24;58.25;100399.47;4283311;33;20810;-81
2021/12/31 06:44:47;;;;;;;;;;;;;;;9.28;57.64;100413.34;4287395;33;19984;-82
2021/12/31 06:47:14;;;;;;;;;;;;;;;9.18;57.98;100408.75;4295741;33;20006;-80
2021/12/31 06:49:42;;;;;;;;;;;;;;;9.34;56.95;100417.84;4280755;33;19988;-81
2021/12/31 06:52:09;;;;;;;;;;;;;;;9.22;57.49;100414.06;4292527;33;19996;-84
2021/12/31 06:54:36;;;;;;;;;;;;;;;9.21;57.69;100409.72;4283847;33;20024;-82
2021/12/31 06:57:04;;;;;;;;;;;;;;;9.26;57.59;100405.56;4283785;33;20000;-83
2021/12/31 06:59:30;;;;;;;;;;;;;;;9.19;58.08;100408.81;4280638;33;20000;-82
2021/12/31 07:01:58;;;;;;;;;;;;;;;9.18;58.58;100417.34;4279325;33;20024;-80
2021/12/31 07:04:25;;;;;;;;;;;;;;;9.34;57.92;100412.66;4273510;33;20031;-82
2021/12/31 07:06:52;;;;;;;;;;;;;;;9.35;58.55;100419.56;4298115;33;19992;-82
2021/12/31 07:09:29;;;;;;;;;;;;;;;9.49;58.85;100418.31;4296034;33;20012;-79
2021/12/31 07:11:56;;;;;;;;;;;;;;;9.64;60.08;100423.94;4287896;33;19992;-82
2021/12/31 07:14:22;;;;;;;;;;;;;;;9.90;60.33;100426.38;4280628;33;20328;-81
2021/12/31 07:16:50;;;;;;;;;;;;;;;10.07;59.71;100435.47;4299361;33;20154;-83
2021/12/31 07:19:17;;;;;;;;;;;;;;;10.12;59.12;100433.91;4295130;33;20003;-82
2021/12/31 07:21:44;;;;;;;;;;;;;;;10.36;58.47;100438.00;4296758;33;20000;-82
2021/12/31 07:24:11;;;;;;;;;;;;;;;10.34;58.51;100439.66;4274828;33;19993;-80
2021/12/31 07:26:38;;;;;;;;;;;;;;;10.25;58.85;100441.16;4305932;33;20040;-82
2021/12/31 07:29:04;;;;;;;;;;;;;;;10.39;58.56;100440.69;4308983;33;20341;-82
2021/12/31 07:31:31;;;;;;;;;;;;;;;10.45;58.28;100446.00;4268777;33;20331;-81
2021/12/31 07:33:58;;;;;;;;;;;;;;;10.36;58.36;100432.84;4290123;33;20427;-82
2021/12/31 07:36:27;;;;;;;;;;;;;;;10.44;58.96;100436.50;4287049;33;19988;-81
2021/12/31 07:39:01;;;;;;;;;;;;;;;10.41;58.79;100446.78;4263787;33;20028;-81
2021/12/31 07:41:28;;;;;;;;;;;;;;;10.46;59.25;100450.34;4271723;33;20750;-81
2021/12/31 07:43:55;;;;;;;;;;;;;;;10.51;59.17;100448.75;4290101;33;20002;-81
2021/12/31 07:46:22;;;;;;;;;;;;;;;10.49;59.01;100450.44;4299407;33;20055;-81
2021/12/31 07:48:49;;;;;;;;;;;;;;;10.56;58.88;100457.53;4285513;33;20047;-82
2021/12/31 07:51:17;;;;;;;;;;;;;;;10.55;58.78;100455.75;4284145;33;20010;-81
2021/12/31 07:53:44;;;;;;;;;;;;;;;10.61;58.50;100461.09;4263137;33;20549;-81
2021/12/31 07:56:51;;;;;;;;;;;;;;;10.68;58.91;100447.47;4280052;33;19997;-81
2021/12/31 07:59:38;;;;;;;;;;;;;;;10.78;58.83;100448.56;4249202;33;20031;-81
2021/12/31 08:02:30;;;;;;;;;;;;;;;10.86;59.01;100451.38;4257760;33;20050;-83
2021/12/31 08:04:57;;;;;;;;;;;;;;;10.97;59.53;100449.91;4272072;33;19985;-80
2021/12/31 08:07:24;;;;;;;;;;;;;;;11.08;61.37;100455.38;4277086;33;20372;-79
2021/12/31 08:09:51;;;;;;;;;;;;;;;11.45;62.75;100459.66;4293342;33;19981;-80
2021/12/31 08:12:38;;;;;;;;;;;;;;;11.72;63.27;100463.72;4270277;33;20004;-80
2021/12/31 08:15:05;;;;;;;;;;;;;;;12.06;64.12;100465.31;4287860;33;20011;-82
2021/12/31 08:17:32;;;;;;;;;;;;;;;12.37;64.57;100456.41;4291601;33;20053;-80
2021/12/31 08:19:59;;;;;;;;;;;;;;;12.66;64.67;100453.44;4292393;33;20010;-80
2021/12/31 08:22:25;;;;;;;;;;;;;;;12.94;64.44;100466.06;4293428;33;19993;-79
2021/12/31 08:24:52;;;;;;;;;;;;;;;13.22;64.04;100461.31;4294090;33;19988;-81
2021/12/31 08:27:22;;;;;;;;;;;;;;;13.32;64.25;100455.44;4281174;33;19996;-83
2021/12/31 08:29:48;;;;;;;;;;;;;;;13.37;63.43;100458.97;4291965;33;20036;-82
2021/12/31 08:32:15;;;;;;;;;;;;;;;13.80;62.89;100461.28;4301644;33;19996;-83
2021/12/31 08:34:42;;;;;;;;;;;;;;;13.82;63.18;100460.47;4285516;33;20020;-81
2021/12/31 08:37:09;;;;;;;;;;;;;;;14.25;62.22;100450.53;4278626;33;20002;-81
2021/12/31 08:39:36;;;;;;;;;;;;;;;14.26;62.90;100459.22;4290566;33;20770;-81
2021/12/31 08:42:03;;;;;;;;;;;;;;;14.29;62.19;100457.53;4289276;33;19993;-83
2021/12/31 08:44:30;;;;;;;;;;;;;;;14.53;61.41;100461.28;4291948;33;19988;-79
2021/12/31 08:46:56;;;;;;;;;;;;;;;14.67;61.20;100449.25;4273986;33;20478;-82
2021/12/31 08:49:24;;;;;;;;;;;;;;;14.82;61.09;100446.78;4277815;33;20036;-81
2021/12/31 08:51:51;;;;;;;;;;;;;;;15.09;60.74;100453.06;4265050;33;797768;-82
2021/12/31 08:54:18;;;;;;;;;;;;;;;15.10;61.30;100445.28;4294908;33;20028;-79
2021/12/31 08:56:45;;;;;;;;;;;;;;;15.05;60.35;100448.72;4277918;33;19993;-80
2021/12/31 08:59:19;;;;;;;;;;;;;;;15.38;60.32;100449.81;4292416;33;20001;-78
2021/12/31 09:01:46;;;;;;;;;;;;;;;15.52;59.81;100450.78;4290794;33;20048;-79
2021/12/31 09:04:13;;;;;;;;;;;;;;;15.43;59.92;100442.88;4277384;33;20020;-80
2021/12/31 09:06:39;;;;;;;;;;;;;;;15.58;60.51;100440.37;4291036;33;20041;-79
2021/12/31 09:09:06;;;;;;;;;;;;;;;15.92;57.84;100437.94;4291746;33;20428;-79
2021/12/31 09:11:33;;;;;;;;;;;;;;;15.57;60.53;100438.59;4278562;33;20649;-80
2021/12/31 09:14:00;;;;;;;;;;;;;;;15.30;61.77;100447.16;4273924;33;20007;-78
2021/12/31 09:16:27;;;;;;;;;;;;;;;15.86;59.56;100440.50;4295549;33;19988;-82
2021/12/31 09:18:54;;;;;;;;;;;;;;;15.31;61.67;100444.53;4278163;33;20072;-81
2021/12/31 09:21:22;;;;;;;;;;;;;;;15.62;60.37;100444.72;4278441;33;20004;-84
2021/12/31 09:23:49;;;;;;;;;;;;;;;16.00;59.31;100441.44;4277863;33;19977;-82
2021/12/31 09:26:16;;;;;;;;;;;;;;;15.80;61.50;100450.09;4277852;33;20028;-87
2021/12/31 09:28:43;;;;;;;;;;;;;;;16.12;58.92;100440.63;4278405;33;20040;-81
2021/12/31 09:31:10;;;;;;;;;;;;;;;15.99;60.15;100444.94;4278148;33;20006;-85
2021/12/31 09:33:37;;;;;;;;;;;;;;;16.32;58.31;100438.06;4278862;33;20371;-83
2021/12/31 09:36:04;;;;;;;;;;;;;;;16.09;59.44;100436.25;4279357;33;20143;-87
2021/12/31 09:38:31;;;;;;;;;;;;;;;16.01;59.58;100437.97;4279510;33;20009;-84
2021/12/31 09:40:58;;;;;;;;;;;;;;;15.71;61.12;100430.91;4293264;33;20097;-78
2021/12/31 09:43:25;;;;;;;;;;;;;;;16.13;57.87;100422.34;4292780;33;19989;-89
2021/12/31 09:45:53;;;;;;;;;;;;;;;15.80;61.05;100429.19;4279783;33;20003;-92
2021/12/31 09:48:21;;;;;;;;;;;;;;;15.70;61.04;100427.41;4273665;33;20036;-91
2021/12/31 09:50:48;;;;;;;;;;;;;;;15.49;63.10;100432.50;4292074;33;19989;-95
2021/12/31 09:53:16;;;;;;;;;;;;;;;15.33;62.73;100432.38;4291552;33;20378;-92
2021/12/31 09:55:45;;;;;;;;;;;;;;;15.63;62.56;100435.16;4293285;33;19992;-84
2021/12/31 09:58:12;;;;;;;;;;;;;;;15.63;62.51;100441.25;4280131;33;20024;-88
2021/12/31 10:00:42;;;;;;;;;;;;;;;15.75;61.15;100441.34;4290870;33;20008;-93
2021/12/31 10:03:15;;;;;;;;;;;;;;;16.23;60.36;100437.16;4293203;33;19988;-92
2021/12/31 10:05:43;;;;;;;;;;;;;;;16.47;58.15;100423.28;4279338;33;19992;-84
2021/12/31 10:08:17;;;;;;;;;;;;;;;16.26;60.10;100434.56;4293336;33;20349;-84
2021/12/31 10:10:45;;;;;;;;;;;;;;;15.92;59.75;100432.72;4293461;33;20469;-88
2021/12/31 10:13:12;;;;;;;;;;;;;;;16.36;58.85;100425.00;4279731;33;20510;-80
2021/12/31 10:15:42;;;;;;;;;;;;;;;16.52;59.17;100420.66;4293209;33;20005;-87
2021/12/31 10:18:12;;;;;;;;;;;;;;;16.02;60.93;100411.00;4293642;33;19996;-93
2021/12/31 10:20:49;;;;;;;;;;;;;;;15.94;61.23;100415.31;4279415;33;19973;-91
2021/12/31 10:23:16;;;;;;;;;;;;;;;16.66;58.77;100418.94;4290782;33;19976;-84
2021/12/31 10:25:43;;;;;;;;;;;;;;;16.82;57.96;100416.37;4293117;33;19988;-87
2021/12/31 10:28:11;;;;;;;;;;;;;;;16.90;58.52;100407.63;4280234;33;20344;-81
2021/12/31 10:30:38;;;;;;;;;;;;;;;16.79;59.85;100413.78;4279515;33;20035;-88
2021/12/31 10:33:05;;;;;;;;;;;;;;;16.93;59.44;100406.78;4289118;33;20656;-87
2021/12/31 10:35:38;;;;;;;;;;;;;;;16.97;58.43;100405.88;4292698;33;20145;-85
2021/12/31 10:38:06;;;;;;;;;;;;;;;17.22;57.45;100408.47;4293682;33;20060;-89
2021/12/31 10:40:34;;;;;;;;;;;;;;;16.96;58.83;100402.41;4293062;33;20047;-86
2021/12/31 10:43:07;;;;;;;;;;;;;;;17.16;57.03;100404.97;4292832;33;20028;-85
2021/12/31 10:45:34;;;;;;;;;;;;;;;17.13;57.58;100407.63;4290351;33;20012;-84
2021/12/31 10:48:06;;;;;;;;;;;;;;;17.37;56.15;100400.59;4293374;33;19997;-91
2021/12/31 10:50:33;;;;;;;;;;;;;;;17.47;55.15;100412.78;4293054;33;20000;-87
2021/12/31 10:53:06;;;;;;;;;;;;;;;17.54;54.40;100406.63;4279986;33;20020;-90
2021/12/31 10:55:39;;;;;;;;;;;;;;;17.32;56.11;100415.44;4292964;33;19988;-86
2021/12/31 10:58:09;;;;;;;;;;;;;;;17.06;57.37;100413.72;4293360;33;20367;-82
2021/12/31 11:00:37;;;;;;;;;;;;;;;17.31;56.29;100418.94;4293134;33;20052;-86
2021/12/31 11:03:04;;;;;;;;;;;;;;;17.14;56.38;100422.44;4292454;33;20021;-89
2021/12/31 11:05:32;;;;;;;;;;;;;;;17.05;56.93;100417.22;4291094;33;20035;-88
2021/12/31 11:08:00;;;;;;;;;;;;;;;17.08;56.75;100417.22;4290463;33;19992;-92
2021/12/31 11:10:32;;;;;;;;;;;;;;;17.20;56.31;100406.75;4265893;33;19984;-84
2021/12/31 11:13:00;;;;;;;;;;;;;;;17.41;55.31;100410.19;4288672;33;19980;-84
2021/12/31 11:15:27;;;;;;;;;;;;;;;17.30;56.37;100409.34;4292826;33;19988;-86
2021/12/31 11:17:53;;;;;;;;;;;;;;;17.35;56.05;100399.72;4293047;33;20044;-82
2021/12/31 11:20:21;;;;;;;;;;;;;;;17.31;56.10;100404.09;4293137;33;19980;-86
2021/12/31 11:22:48;;;;;;;;;;;;;;;17.32;56.23;100394.50;4279615;33;19991;-85
2021/12/31 11:25:35;;;;;;;;;;;;;;;17.38;55.79;100397.09;4292306;33;19993;-91
2021/12/31 11:28:02;;;;;;;;;;;;;;;17.33;55.22;100391.03;4292849;33;20041;-80
2021/12/31 11:30:30;;;;;;;;;;;;;;;17.59;55.03;100394.41;4284043;33;20083;-85
2021/12/31 11:33:05;;;;;;;;;;;;;;;17.74;54.12;100390.88;4256283;33;20006;-83
2021/12/31 11:35:33;;;;;;;;;;;;;;;17.82;54.22;100391.72;4254951;33;19995;-83
2021/12/31 11:38:02;;;;;;;;;;;;;;;17.30;55.87;100391.03;4265418;33;20032;-85
2021/12/31 11:40:35;;;;;;;;;;;;;;;16.80;56.97;100389.34;4259776;33;20001;-87
2021/12/31 11:43:25;;;;;;;;;;;;;;;16.73;57.51;100393.69;4273424;33;19977;-85
2021/12/31 11:46:19;;;;;;;;;;;;;;;16.59;57.83;100396.31;4272592;33;20054;-86
2021/12/31 11:48:51;;;;;;;;;;;;;;;15.96;59.53;100388.34;4272790;33;20263;-88
2021/12/31 11:51:35;;;;;;;;;;;;;;;16.24;59.02;100393.63;4255323;33;20045;-85
2021/12/31 11:54:03;;;;;;;;;;;;;;;15.87;59.95;100392.69;4267043;33;20049;-87
2021/12/31 11:56:36;;;;;;;;;;;;;;;15.58;61.12;100393.41;4262347;33;19990;-88
2021/12/31 11:59:09;;;;;;;;;;;;;;;15.68;60.87;100392.59;4268780;33;20003;-85
2021/12/31 12:01:36;;;;;;;;;;;;;;;16.19;59.00;100385.78;4263566;33;19993;-88
2021/12/31 12:04:22;;;;;;;;;;;;;;;16.01;59.14;100391.81;4263358;33;20000;-82
2021/12/31 12:06:50;;;;;;;;;;;;;;;16.42;58.08;100382.34;4266568;33;20001;-84
2021/12/31 12:09:17;;;;;;;;;;;;;;;15.92;59.70;100385.72;4270283;33;19985;-86
2021/12/31 12:12:03;;;;;;;;;;;;;;;15.96;60.06;100383.13;4263641;33;20056;-83
2021/12/31 12:14:31;;;;;;;;;;;;;;;15.68;60.74;100371.72;4263885;33;19978;-83
2021/12/31 12:16:58;;;;;;;;;;;;;;;15.94;60.08;100379.63;4252317;33;20085;-81
2021/12/31 12:19:43;;;;;;;;;;;;;;;16.38;59.07;100388.44;4266883;33;20045;-85
2021/12/31 12:22:21;;;;;;;;;;;;;;;16.28;59.31;100374.50;4278157;33;19988;-82
2021/12/31 12:24:48;;;;;;;;;;;;;;;16.41;58.75;100372.75;4247680;33;20038;-82
2021/12/31 12:27:15;;;;;;;;;;;;;;;16.38;58.93;100375.38;4267261;33;20021;-88
2021/12/31 12:29:42;;;;;;;;;;;;;;;16.48;58.72;100371.88;4278605;33;19988;-84
2021/12/31 12:32:10;;;;;;;;;;;;;;;16.69;58.01;100371.03;4264546;33;19993;-83
2021/12/31 12:34:37;;;;;;;;;;;;;;;17.15;56.73;100371.88;4277063;33;20025;-84
2021/12/31 12:37:03;;;;;;;;;;;;;;;17.36;56.22;100370.09;4265736;33;20016;-85
2021/12/31 12:39:30;;;;;;;;;;;;;;;17.39;55.85;100354.38;4268235;33;20095;-82
2021/12/31 12:41:57;;;;;;;;;;;;;;;17.10;56.62;100367.50;4270043;33;20426;-83
2021/12/31 12:44:25;;;;;;;;;;;;;;;17.19;56.29;100357.88;4263664;33;20044;-82
2021/12/31 12:46:56;;;;;;;;;;;;;;;16.65;58.08;100364.91;4274586;33;20003;-82
2021/12/31 12:49:27;;;;;;;;;;;;;;;16.91;56.69;100366.66;4265266;33;24533;-83
2021/12/31 12:51:57;;;;;;;;;;;;;;;17.18;56.35;100364.00;4279418;33;19993;-84
2021/12/31 12:54:25;;;;;;;;;;;;;;;17.48;55.42;100359.53;4262841;33;19992;-85